createdAt,value
2018-06-23T00:00:59.626Z,60.57
2018-06-23T00:03:27.532Z,60.79
2018-06-23T00:05:55.457Z,61.48
2018-06-23T00:08:23.301Z,60.60
2018-06-23T00:10:51.294Z,61.18
2018-06-23T00:13:19.112Z,61.19
2018-06-23T00:15:46.983Z,61.13
2018-06-23T00:18:14.885Z,61.57
2018-06-23T00:20:42.764Z,61.18
2018-06-23T00:23:10.633Z,61.67
2018-06-23T00:25:44.165Z,61.95
2018-06-23T00:28:12.061Z,61.78
2018-06-23T00:30:39.981Z,61.12
2018-06-23T00:33:07.865Z,61.47
2018-06-23T00:35:35.801Z,61.41
2018-06-23T00:38:03.721Z,62.07
2018-06-23T00:40:31.581Z,62.69
2018-06-23T00:42:59.437Z,62.74
2018-06-23T00:45:27.284Z,62.51
2018-06-23T00:47:55.192Z,61.84
2018-06-23T00:50:23.093Z,62.29
2018-06-23T00:52:50.957Z,62.30
2018-06-23T00:55:18.843Z,62.47
2018-06-23T00:57:46.739Z,63.86
2018-06-23T01:00:14.798Z,62.91
2018-06-23T01:02:46.441Z,63.00
2018-06-23T01:05:14.582Z,63.35
2018-06-23T01:07:42.606Z,62.67
2018-06-23T01:10:10.489Z,61.90
2018-06-23T01:12:38.311Z,62.82
2018-06-23T01:15:06.302Z,62.98
2018-06-23T01:17:34.243Z,62.94
2018-06-23T01:20:02.161Z,62.90
2018-06-23T01:22:30.100Z,63.00
2018-06-23T01:24:58.014Z,62.87
2018-06-23T01:27:25.925Z,62.65
2018-06-23T01:29:53.801Z,61.93
2018-06-23T01:32:21.673Z,63.30
2018-06-23T01:34:49.621Z,62.54
2018-06-23T01:37:17.485Z,62.82
2018-06-23T01:39:45.337Z,62.00
2018-06-23T01:42:13.205Z,63.99
2018-06-23T01:44:45.062Z,64.01
2018-06-23T01:47:12.884Z,63.79
2018-06-23T01:49:40.745Z,64.60
2018-06-23T01:52:08.644Z,64.01
2018-06-23T01:54:36.561Z,65.43
2018-06-23T01:57:04.937Z,64.75
2018-06-23T01:59:32.809Z,64.13
2018-06-23T02:02:00.732Z,64.51
2018-06-23T02:04:28.630Z,64.00
2018-06-23T02:06:56.565Z,64.93
2018-06-23T02:09:24.617Z,65.62
2018-06-23T02:11:52.599Z,64.64
2018-06-23T02:14:26.244Z,64.26
2018-06-23T02:16:59.713Z,64.53
2018-06-23T02:19:33.246Z,63.78
2018-06-23T02:22:07.058Z,64.64
2018-06-23T02:24:40.582Z,64.44
2018-06-23T02:27:14.096Z,64.38
2018-06-23T02:29:47.676Z,64.94
2018-06-23T02:32:21.157Z,65.84
2018-06-23T02:34:54.722Z,65.30
2018-06-23T02:37:22.590Z,65.31
2018-06-23T02:39:50.405Z,66.92
2018-06-23T02:42:18.287Z,64.57
2018-06-23T02:44:46.133Z,66.20
2018-06-23T02:47:17.802Z,66.21
2018-06-23T02:49:45.769Z,66.08
2018-06-23T02:52:13.680Z,64.39
2018-06-23T02:54:41.602Z,65.36
2018-06-23T02:57:09.462Z,64.64
2018-06-23T02:59:37.391Z,65.68
2018-06-23T03:02:05.350Z,65.18
2018-06-23T03:04:33.214Z,64.50
2018-06-23T03:07:01.161Z,64.48
2018-06-23T03:09:29.084Z,65.55
2018-06-23T03:11:56.940Z,66.70
2018-06-23T03:14:24.791Z,66.39
2018-06-23T03:16:52.942Z,69.11
2018-06-23T03:19:20.843Z,68.66
2018-06-23T03:21:48.814Z,67.17
2018-06-23T03:24:16.905Z,66.48
2018-06-23T03:26:44.814Z,66.16
2018-06-23T03:29:12.712Z,66.71
2018-06-23T03:31:40.665Z,66.32
2018-06-23T03:34:08.505Z,65.34
2018-06-23T03:36:36.537Z,65.75
2018-06-23T03:39:08.061Z,65.33
2018-06-23T03:41:35.926Z,65.65
2018-06-23T03:44:03.904Z,65.27
2018-06-23T03:46:31.797Z,66.18
2018-06-23T03:48:59.705Z,65.29
2018-06-23T03:51:27.894Z,66.62
2018-06-23T03:53:55.787Z,64.91
2018-06-23T03:56:24.023Z,66.10
2018-06-23T03:58:52.332Z,67.68
2018-06-23T04:01:20.150Z,65.77
2018-06-23T04:03:48.077Z,66.54
2018-06-23T04:06:15.994Z,66.79
2018-06-23T04:08:43.864Z,66.09
2018-06-23T04:11:11.801Z,65.28
2018-06-23T04:13:39.710Z,65.11
2018-06-23T04:16:07.591Z,65.36
2018-06-23T04:18:35.526Z,66.27
2018-06-23T04:21:03.444Z,66.18
2018-06-23T04:23:31.314Z,66.92
2018-06-23T04:25:59.273Z,68.89
2018-06-23T04:28:27.197Z,67.11
2018-06-23T04:30:56.585Z,68.03
2018-06-23T04:33:24.436Z,66.74
2018-06-23T04:35:52.417Z,66.25
2018-06-23T04:38:20.265Z,66.15
2018-06-23T04:40:48.151Z,66.52
2018-06-23T04:43:16.028Z,66.29
2018-06-23T04:45:43.957Z,66.64
2018-06-23T04:48:11.938Z,65.75
2018-06-23T04:50:39.852Z,64.37
2018-06-23T04:53:07.717Z,64.93
2018-06-23T04:55:35.670Z,64.25
2018-06-23T04:58:03.595Z,62.26
2018-06-23T05:00:31.615Z,60.88
2018-06-23T05:02:59.544Z,61.10
2018-06-23T05:05:27.372Z,61.50
2018-06-23T05:07:55.221Z,61.27
2018-06-23T05:10:23.149Z,60.09
2018-06-23T05:12:55.718Z,59.53
2018-06-23T05:15:23.645Z,60.11
2018-06-23T05:17:51.561Z,59.69
2018-06-23T05:20:19.563Z,59.38
2018-06-23T05:22:47.413Z,58.89
2018-06-23T05:25:15.502Z,59.45
2018-06-23T05:27:43.444Z,58.72
2018-06-23T05:30:11.350Z,58.16
2018-06-23T05:32:39.217Z,57.32
2018-06-23T05:35:07.257Z,57.34
2018-06-23T05:37:35.124Z,57.25
2018-06-23T05:40:03.034Z,56.22
2018-06-23T05:42:30.993Z,56.39
2018-06-23T05:44:58.797Z,55.54
2018-06-23T05:47:26.699Z,55.22
2018-06-23T05:49:54.613Z,55.71
2018-06-23T05:52:22.721Z,55.65
2018-06-23T05:54:50.585Z,55.76
2018-06-23T05:57:18.516Z,54.73
2018-06-23T05:59:46.399Z,54.13
2018-06-23T06:02:14.357Z,53.91
2018-06-23T06:04:42.790Z,53.50
2018-06-23T06:07:11.040Z,53.62
2018-06-23T06:09:38.860Z,53.47
2018-06-23T06:12:06.801Z,52.68
2018-06-23T06:14:34.726Z,52.52
2018-06-23T06:17:21.445Z,52.50
2018-06-23T06:19:50.805Z,52.11
2018-06-23T06:22:18.669Z,51.45
2018-06-23T06:24:46.965Z,50.67
2018-06-23T06:27:14.908Z,51.74
2018-06-23T06:29:43.004Z,50.75
2018-06-23T06:32:11.085Z,51.09
2018-06-23T06:34:38.962Z,50.49
2018-06-23T06:37:07.234Z,49.89
2018-06-23T06:39:35.469Z,49.57
2018-06-23T06:42:03.740Z,49.15
2018-06-23T06:44:32.928Z,48.53
2018-06-23T06:47:00.749Z,48.16
2018-06-23T06:49:28.742Z,48.81
2018-06-23T06:51:56.706Z,48.38
2018-06-23T06:54:24.658Z,47.43
2018-06-23T06:56:54.542Z,47.87
2018-06-23T06:59:22.600Z,47.46
2018-06-23T07:01:50.505Z,45.88
2018-06-23T07:04:19.204Z,45.02
2018-06-23T07:06:47.113Z,46.19
2018-06-23T07:09:15.325Z,45.57
2018-06-23T07:11:43.989Z,44.58
2018-06-23T07:14:11.925Z,44.16
2018-06-23T07:16:40.577Z,43.62
2018-06-23T07:19:08.484Z,44.76
2018-06-23T07:21:36.328Z,44.84
2018-06-23T07:24:05.104Z,44.12
2018-06-23T07:26:33.769Z,43.08
2018-06-23T07:29:02.187Z,43.24
2018-06-23T07:31:30.035Z,43.86
2018-06-23T07:33:57.878Z,42.43
2018-06-23T07:36:25.852Z,41.67
2018-06-23T07:38:53.820Z,41.42
2018-06-23T07:41:21.689Z,41.68
2018-06-23T07:43:49.575Z,39.86
2018-06-23T07:46:17.559Z,40.39
2018-06-23T07:48:45.432Z,40.42
2018-06-23T07:51:13.501Z,40.89
2018-06-23T07:53:41.518Z,39.42
2018-06-23T07:56:09.859Z,39.71
2018-06-23T07:58:37.953Z,40.14
2018-06-23T08:01:05.877Z,38.16
2018-06-23T08:03:34.972Z,37.85
2018-06-23T08:06:02.858Z,37.97
2018-06-23T08:08:34.969Z,38.37
2018-06-23T08:11:03.207Z,37.75
2018-06-23T08:13:31.085Z,38.31
2018-06-23T08:16:01.740Z,38.42
2018-06-23T08:18:29.708Z,37.92
2018-06-23T08:21:05.338Z,37.93
2018-06-23T08:23:33.276Z,36.79
2018-06-23T08:26:09.170Z,36.94
2018-06-23T08:28:44.587Z,34.89
2018-06-23T08:31:13.285Z,35.22
2018-06-23T08:33:41.238Z,33.57
2018-06-23T08:36:14.387Z,34.78
2018-06-23T08:38:42.398Z,33.99
2018-06-23T08:41:10.377Z,33.35
2018-06-23T08:43:38.264Z,33.16
2018-06-23T08:46:06.104Z,31.75
2018-06-23T08:48:34.053Z,32.06
2018-06-23T08:51:01.989Z,32.14
2018-06-23T08:53:29.879Z,31.11
2018-06-23T08:55:57.704Z,30.16
2018-06-23T08:58:25.646Z,29.61
2018-06-23T09:00:53.585Z,31.33
2018-06-23T09:03:21.481Z,29.94
2018-06-23T09:05:49.389Z,29.95
2018-06-23T09:08:17.260Z,28.60
2018-06-23T09:10:45.142Z,28.46
2018-06-23T09:13:13.089Z,28.66
2018-06-23T09:15:40.959Z,27.78
2018-06-23T09:18:08.841Z,28.18
2018-06-23T09:20:36.748Z,28.30
2018-06-23T09:23:08.464Z,27.19
2018-06-23T09:25:36.437Z,27.12
2018-06-23T09:28:04.463Z,26.84
2018-06-23T09:30:32.338Z,27.51
2018-06-23T09:33:00.173Z,28.26
2018-06-23T09:35:28.053Z,28.38
2018-06-23T09:37:55.916Z,28.59
2018-06-23T09:40:23.801Z,28.92
2018-06-23T09:42:51.709Z,28.21
2018-06-23T09:45:19.633Z,29.07
2018-06-23T09:47:47.550Z,28.66
2018-06-23T09:50:15.420Z,28.74
2018-06-23T09:52:43.349Z,28.14
2018-06-23T09:55:11.265Z,26.97
2018-06-23T09:57:39.086Z,27.17
2018-06-23T10:00:07.140Z,26.10
2018-06-23T10:02:34.996Z,26.18
2018-06-23T10:05:06.384Z,26.61
2018-06-23T10:07:34.384Z,26.72
2018-06-23T10:10:02.315Z,26.76
2018-06-23T10:12:30.260Z,26.43
2018-06-23T10:14:58.185Z,27.33
2018-06-23T10:17:26.129Z,26.96
2018-06-23T10:19:54.063Z,27.99
2018-06-23T10:22:21.914Z,28.34
2018-06-23T10:24:49.885Z,27.91
2018-06-23T10:27:17.797Z,27.98
2018-06-23T10:29:45.687Z,28.57
2018-06-23T10:32:13.680Z,29.43
2018-06-23T10:34:41.602Z,28.52
2018-06-23T10:37:09.472Z,29.07
2018-06-23T10:39:37.481Z,28.58
2018-06-23T10:42:05.697Z,28.86
2018-06-23T10:44:33.613Z,27.87
2018-06-23T10:47:01.542Z,28.92
2018-06-23T10:49:29.413Z,28.91
2018-06-23T10:51:57.351Z,28.22
2018-06-23T10:54:25.613Z,28.86
2018-06-23T10:56:53.493Z,28.37
2018-06-23T10:59:22.425Z,28.58
2018-06-23T11:01:50.356Z,28.82
2018-06-23T11:04:18.314Z,29.41
2018-06-23T11:06:46.198Z,29.91
2018-06-23T11:09:14.137Z,30.36
2018-06-23T11:11:42.461Z,30.03
2018-06-23T11:14:11.280Z,30.55
2018-06-23T11:16:39.129Z,30.79
2018-06-23T11:19:07.165Z,31.15
2018-06-23T11:21:35.112Z,31.51
2018-06-23T11:24:03.117Z,32.44
2018-06-23T11:26:31.061Z,32.25
2018-06-23T11:28:58.957Z,31.54
2018-06-23T11:31:26.876Z,31.24
2018-06-23T11:33:54.834Z,30.84
2018-06-23T11:36:22.757Z,31.17
2018-06-23T11:38:51.458Z,30.21
2018-06-23T11:41:19.755Z,30.28
2018-06-23T11:43:48.277Z,30.37
2018-06-23T11:46:16.175Z,30.97
2018-06-23T11:48:44.070Z,30.84
2018-06-23T11:51:12.004Z,30.92
2018-06-23T11:53:39.926Z,31.34
2018-06-23T11:56:07.869Z,31.22
2018-06-23T11:58:35.780Z,31.38
2018-06-23T12:01:03.720Z,31.42
2018-06-23T12:03:31.648Z,30.35
2018-06-23T12:06:00.000Z,28.94
2018-06-23T12:08:27.991Z,28.76
2018-06-23T12:10:55.812Z,29.07
2018-06-23T12:13:23.684Z,29.04
2018-06-23T12:15:51.645Z,29.07
2018-06-23T12:18:19.561Z,29.14
2018-06-23T12:20:47.512Z,29.79
2018-06-23T12:23:15.617Z,29.86
2018-06-23T12:25:43.510Z,30.02
2018-06-23T12:28:11.341Z,29.16
2018-06-23T12:30:39.422Z,30.00
2018-06-23T12:33:07.301Z,30.37
2018-06-23T12:35:35.224Z,29.71
2018-06-23T12:38:03.202Z,30.08
2018-06-23T12:40:31.095Z,30.32
2018-06-23T12:42:58.980Z,30.51
2018-06-23T12:45:26.922Z,31.08
2018-06-23T12:47:54.869Z,31.79
2018-06-23T12:50:22.804Z,31.58
2018-06-23T12:52:50.669Z,31.83
2018-06-23T12:55:18.543Z,32.10
2018-06-23T12:57:46.401Z,31.29
2018-06-23T13:00:14.221Z,31.94
2018-06-23T13:02:42.216Z,32.01
2018-06-23T13:05:10.161Z,32.06
2018-06-23T13:07:38.063Z,31.53
2018-06-23T13:10:06.049Z,31.89
2018-06-23T13:12:35.060Z,31.78
2018-06-23T13:15:03.071Z,31.98
2018-06-23T13:17:30.999Z,32.22
2018-06-23T13:19:58.903Z,32.00
2018-06-23T13:22:26.767Z,32.35
2018-06-23T13:24:54.661Z,30.40
2018-06-23T13:27:22.541Z,29.95
2018-06-23T13:29:50.471Z,30.46
2018-06-23T13:32:18.470Z,29.64
2018-06-23T13:34:46.267Z,28.73
2018-06-23T13:37:14.168Z,29.24
2018-06-23T13:39:42.041Z,28.59
2018-06-23T13:42:09.953Z,28.96
2018-06-23T13:44:37.830Z,28.93
2018-06-23T13:47:06.426Z,29.41
2018-06-23T13:49:34.312Z,28.95
2018-06-23T13:52:02.213Z,28.20
2018-06-23T13:54:34.223Z,28.67
2018-06-23T13:57:02.166Z,28.11
2018-06-23T13:59:30.141Z,28.10
2018-06-23T14:01:57.973Z,28.43
2018-06-23T14:04:25.860Z,27.63
2018-06-23T14:06:53.751Z,28.06
2018-06-23T14:09:21.641Z,27.55
2018-06-23T14:11:49.582Z,27.89
2018-06-23T14:14:17.561Z,26.45
2018-06-23T14:16:45.433Z,28.35
2018-06-23T14:19:13.328Z,27.93
2018-06-23T14:21:41.286Z,25.79
2018-06-23T14:24:09.201Z,27.14
2018-06-23T14:26:37.129Z,27.32
2018-06-23T14:29:05.204Z,27.52
2018-06-23T14:31:33.339Z,27.17
2018-06-23T14:34:01.205Z,27.76
2018-06-23T14:36:32.861Z,27.34
2018-06-23T14:39:00.656Z,27.21
2018-06-23T14:41:28.537Z,27.50
2018-06-23T14:43:56.453Z,27.62
2018-06-23T14:46:24.277Z,27.58
2018-06-23T14:48:52.137Z,28.39
2018-06-23T14:51:20.105Z,28.11
2018-06-23T14:53:48.019Z,28.07
2018-06-23T14:56:15.987Z,28.99
2018-06-23T14:58:43.848Z,28.68
2018-06-23T15:01:11.754Z,28.98
2018-06-23T15:03:39.677Z,28.53
2018-06-23T15:06:08.373Z,28.91
2018-06-23T15:08:53.581Z,28.74
2018-06-23T15:11:38.908Z,28.25
2018-06-23T15:14:06.810Z,28.82
2018-06-23T15:16:35.045Z,28.79
2018-06-23T15:19:03.022Z,28.70
2018-06-23T15:21:30.903Z,29.28
2018-06-23T15:23:58.838Z,29.81
2018-06-23T15:26:26.709Z,29.76
2018-06-23T15:28:54.662Z,29.63
2018-06-23T15:31:22.577Z,29.61
2018-06-23T15:33:50.455Z,29.72
2018-06-23T15:36:18.373Z,30.21
2018-06-23T15:38:47.674Z,30.61
2018-06-23T15:41:15.505Z,29.77
2018-06-23T15:43:43.425Z,29.94
2018-06-23T15:46:11.341Z,30.88
2018-06-23T15:48:39.228Z,30.39
2018-06-23T15:51:07.176Z,30.37
2018-06-23T15:53:35.041Z,31.15
2018-06-23T15:56:03.161Z,31.38
2018-06-23T15:58:31.089Z,32.03
2018-06-23T16:00:59.359Z,31.78
2018-06-23T16:03:26.948Z,31.57
2018-06-23T16:05:54.831Z,31.73
2018-06-23T16:08:22.635Z,31.37
2018-06-23T16:10:50.536Z,32.49
2018-06-23T16:13:18.425Z,31.67
2018-06-23T16:15:46.309Z,31.35
2018-06-23T16:18:14.171Z,31.76
2018-06-23T16:20:42.136Z,31.64
2018-06-23T16:23:10.098Z,31.75
2018-06-23T16:25:37.958Z,32.04
2018-06-23T16:28:05.913Z,31.63
2018-06-23T16:30:33.770Z,32.04
2018-06-23T16:33:01.673Z,32.76
2018-06-23T16:35:29.648Z,32.15
2018-06-23T16:37:57.436Z,32.55
2018-06-23T16:40:26.137Z,33.02
2018-06-23T16:42:54.040Z,33.28
2018-06-23T16:45:21.985Z,32.99
2018-06-23T16:47:49.953Z,33.63
2018-06-23T16:50:19.360Z,33.42
2018-06-23T16:52:47.289Z,33.79
2018-06-23T16:55:15.196Z,34.22
2018-06-23T16:57:43.105Z,33.85
2018-06-23T17:00:11.009Z,34.23
2018-06-23T17:02:38.876Z,34.15
2018-06-23T17:05:06.812Z,34.95
2018-06-23T17:07:34.723Z,34.48
2018-06-23T17:10:02.709Z,36.33
2018-06-23T17:12:30.646Z,35.79
2018-06-23T17:14:58.524Z,35.95
2018-06-23T17:17:26.349Z,35.80
2018-06-23T17:19:54.225Z,36.78
2018-06-23T17:22:22.245Z,36.23
2018-06-23T17:24:50.123Z,36.46
2018-06-23T17:27:17.933Z,36.72
2018-06-23T17:29:45.801Z,37.19
2018-06-23T17:32:13.657Z,36.46
2018-06-23T17:34:41.528Z,36.38
2018-06-23T17:37:09.505Z,36.38
2018-06-23T17:39:37.427Z,37.14
2018-06-23T17:42:05.521Z,37.04
2018-06-23T17:44:36.980Z,37.76
2018-06-23T17:47:05.232Z,38.51
2018-06-23T17:49:33.088Z,38.26
2018-06-23T17:52:01.052Z,38.30
2018-06-23T17:54:29.293Z,38.70
2018-06-23T17:56:57.241Z,38.64
2018-06-23T17:59:25.097Z,38.71
2018-06-23T18:01:53.181Z,39.28
2018-06-23T18:04:21.026Z,39.36
2018-06-23T18:06:51.145Z,39.12
2018-06-23T18:09:19.224Z,39.94
2018-06-23T18:11:47.241Z,39.25
2018-06-23T18:14:16.081Z,39.60
2018-06-23T18:16:44.017Z,39.03
2018-06-23T18:19:11.906Z,39.69
2018-06-23T18:21:39.724Z,40.25
2018-06-23T18:24:07.701Z,40.21
2018-06-23T18:26:35.592Z,40.31
2018-06-23T18:29:03.760Z,40.60
2018-06-23T18:31:31.741Z,41.03
2018-06-23T18:54:22.751Z,43.54
2018-06-23T18:56:50.774Z,43.72
2018-06-23T18:59:18.778Z,43.44
2018-06-23T19:01:46.649Z,44.19
2018-06-23T19:04:14.535Z,44.71
2018-06-23T19:06:42.389Z,44.58
2018-06-23T19:09:11.069Z,44.52
2018-06-23T19:11:38.982Z,45.29
2018-06-23T19:14:08.263Z,45.23
2018-06-23T19:16:36.348Z,45.79
2018-06-23T19:19:04.408Z,45.25
2018-06-23T19:21:32.404Z,46.69
2018-06-23T19:24:00.205Z,47.18
2018-06-23T19:26:28.197Z,47.14
2018-06-23T19:28:56.157Z,47.29
2018-06-23T19:31:24.097Z,46.85
2018-06-23T19:33:52.031Z,47.69
2018-06-23T19:36:19.874Z,46.99
2018-06-23T19:38:47.813Z,47.28
2018-06-23T19:41:30.401Z,46.00
2018-06-23T19:43:58.260Z,48.10
2018-06-23T19:46:26.142Z,48.61
2018-06-23T19:48:54.317Z,47.59
2018-06-23T19:51:22.231Z,46.58
2018-06-23T19:53:50.158Z,47.96
2018-06-23T19:56:18.045Z,47.48
2018-06-23T19:58:45.962Z,49.43
2018-06-23T20:01:13.916Z,48.97
2018-06-23T20:03:41.847Z,48.14
2018-06-23T20:06:09.745Z,49.27
2018-06-23T20:08:37.730Z,48.76
2018-06-23T20:11:05.667Z,49.23
2018-06-23T20:13:33.556Z,47.72
2018-06-23T20:16:01.536Z,49.72
2018-06-23T20:18:29.509Z,48.34
2018-06-23T20:20:57.376Z,49.27
2018-06-23T20:23:25.401Z,49.18
2018-06-23T20:25:53.353Z,50.05
2018-06-23T20:28:21.248Z,48.70
2018-06-23T20:30:49.209Z,48.12
2018-06-23T20:33:17.362Z,52.47
2018-06-23T20:35:45.357Z,48.86
2018-06-23T20:38:13.252Z,50.45
2018-06-23T20:40:41.132Z,49.27
2018-06-23T20:43:09.012Z,51.35
2018-06-23T20:45:37.077Z,51.14
2018-06-23T20:48:04.993Z,53.10
2018-06-23T20:50:33.268Z,50.76
2018-06-23T20:53:08.011Z,51.05
2018-06-23T20:55:36.297Z,51.99
2018-06-23T20:58:05.394Z,54.37
2018-06-23T21:00:34.261Z,53.10
2018-06-23T21:03:02.177Z,52.21
2018-06-23T21:05:30.090Z,54.09
2018-06-23T21:07:57.940Z,54.28
2018-06-23T21:10:36.115Z,53.63
2018-06-23T21:13:04.114Z,52.01
2018-06-23T21:15:32.266Z,53.48
2018-06-23T21:18:00.341Z,51.94
2018-06-23T21:20:28.389Z,53.86
2018-06-23T21:22:56.285Z,53.81
2018-06-23T21:25:24.261Z,52.71
2018-06-23T21:27:52.153Z,55.50
2018-06-23T21:30:20.082Z,53.68
2018-06-23T21:32:48.098Z,55.61
2018-06-23T21:35:16.055Z,53.58
2018-06-23T21:37:44.082Z,55.59
2018-06-23T21:40:11.922Z,53.26
2018-06-23T21:42:39.876Z,56.41
2018-06-23T21:45:07.961Z,55.61
2018-06-23T21:47:36.342Z,54.86
2018-06-23T21:50:04.756Z,58.50
2018-06-23T21:52:33.530Z,55.81
2018-06-23T21:55:05.853Z,54.69
2018-06-23T21:57:34.044Z,54.83
2018-06-23T22:00:04.371Z,55.80
2018-06-23T22:02:32.255Z,54.38
2018-06-23T22:05:00.189Z,59.02
2018-06-23T22:07:28.086Z,56.13
2018-06-23T22:09:56.046Z,55.66
2018-06-23T22:12:24.065Z,59.21
2018-06-23T22:14:51.909Z,57.02
2018-06-23T22:17:19.877Z,58.10
2018-06-23T22:19:47.905Z,57.29
2018-06-23T22:22:15.826Z,57.23
2018-06-23T22:24:43.683Z,58.55
2018-06-23T22:27:11.668Z,56.69
2018-06-23T22:29:39.634Z,59.66
2018-06-23T22:32:07.577Z,58.33
2018-06-23T22:34:35.561Z,59.55
2018-06-23T22:37:03.738Z,60.56
2018-06-23T22:39:31.644Z,59.29
2018-06-23T22:41:59.602Z,62.54
2018-06-23T22:44:27.578Z,61.63
2018-06-23T22:46:56.460Z,60.89
2018-06-23T22:49:24.612Z,59.22
2018-06-23T22:51:52.521Z,60.37
2018-06-23T22:54:20.473Z,58.54
2018-06-23T22:56:48.401Z,58.27
2018-06-23T22:59:16.404Z,59.31
2018-06-23T23:01:44.336Z,60.45
2018-06-23T23:04:12.293Z,61.62
2018-06-23T23:06:40.157Z,57.84
2018-06-23T23:09:09.613Z,58.83
2018-06-23T23:11:37.488Z,63.72
2018-06-23T23:14:06.318Z,60.10
2018-06-23T23:16:34.461Z,58.76
2018-06-23T23:19:02.485Z,61.10
2018-06-23T23:21:30.509Z,60.42
2018-06-23T23:23:58.433Z,62.35
2018-06-23T23:26:26.361Z,60.54
2018-06-23T23:28:54.340Z,58.10
2018-06-23T23:31:22.421Z,58.16
2018-06-23T23:33:50.238Z,57.03
2018-06-23T23:36:18.133Z,58.21
2018-06-23T23:38:46.046Z,56.72
2018-06-23T23:41:13.948Z,56.63
2018-06-23T23:43:41.927Z,60.06
2018-06-23T23:46:09.873Z,57.81
2018-06-23T23:48:37.828Z,58.75
2018-06-23T23:51:05.749Z,58.53
2018-06-23T23:53:33.696Z,58.35
2018-06-23T23:56:01.693Z,58.99
2018-06-23T23:58:29.673Z,57.79
